City's sites:

title views votes rating creation
?never been here 380 12 (3.08)  2010-02-07
?pastel negro 598 14 (2.50)  2010-02-07
?dizzy 268 8 (3.38)  2010-02-07
?two pictures from my desktop 866 16 (3.69)  2010-02-09
?broken clock realizes he is the last object left in the ... 431 10 (3.20)  2010-02-09
?heroes of old 580 19 (3.74)  2010-02-09
?mr. price 434 8 (3.25)  2010-02-09
?Music I Like - Part 1 607 10 (3.60)  2010-02-10
?Music I Like - Part 2 380 13 (3.54)  2010-02-10
?Music I Like - Part 3 535 13 (3.69)  2010-02-10
?Music I Like - Part 4 419 5 (3.20)  2010-02-10
?intense 531 9 (3.78)  2010-02-10
?oh SNAP 776 9 (3.22)  2010-02-10
?Music I Like - Part 5 539 9 (3.56)  2010-02-10
?SignlanguageTMND 385 14 (3.86)  2010-02-10
?lol internet (refresh) 594 6 (3.17)  2010-02-12
?Dumbeldore kills snape! 3,326 67 (4.03)  2010-02-12
?prairiedogeric10 tribute site 668 23 (3.96)  2010-02-13
?Legolewdite fan club 1,286 38 (3.87)  2010-02-13
?Connery retires 406 13 (3.85)  2010-02-13
?TOURNEY4: lol internet 537 7 (2.43)  2010-02-15
?Speed Deemon 976 23 (3.74)  2010-02-23
?Tribute: ASSCOCKredux 1,638 64 (3.91)  2010-02-23
?some light jazz with Robert De Niro 846 12 (3.50)  2010-02-23
?In What Language 1,443 34 (3.74)  2010-02-24
?go go go go go go go go go go go go go go go go ... 2,064 23 (3.74)  2010-02-24
?FEARCONDOM'S FAMILY Q U I L T 606 11 (3.55)  2010-02-24
?TEST 758 19 (3.84)  2010-02-26
?....someday, oh dream maker DUNANANANAN... 5,102 148 (3.96)  2010-02-28
?DOUGH FUNNIE HOMO DICKS 629 12 (3.58)  2010-03-01
?Using a concrete bricK 581 17 (3.82)  2010-03-01
?I had sex with a Kayan Tribe woman, little help plea... 960 11 (3.36)  2010-03-03
?Adventure 4 1,073 18 (3.61)  2010-03-03
?the standoff 454 9 (3.67)  2010-03-03
?alley children 524 11 (3.91)  2010-03-05
?Steven Seagal isn't impressed 9,836 181 (4.17)  2010-03-05
?Daunting Steps 225 7 (3.00)  2010-03-05
?Cruel and Unusual 6,192 163 (4.24)  2010-03-09
?DancehallTMND 459 10 (3.80)  2010-03-12
?FUCK OUT MY FACE 492 5 (2.60)  2010-03-18
?16, no dither 780 18 (3.94)  2010-03-20
?say hi to my girlfriend 971 16 (3.81)  2010-03-21
?TT 601 16 (3.88)  2010-03-23
?jimmm thinks about his next five 678 20 (3.80)  2010-03-24
?THE TELEKINETIC MAN 285 18 (3.50)  2010-03-25
?. 125 7 (2.71)  2010-03-26
?1! 348 17 (3.35)  2010-03-26
?Fake crocodile takes it to the limit one more time 605 9 (3.67)  2010-03-27
?croctheme 402 4 (3.25)  2010-03-27
?crocodile site 426 6 (3.50)  2010-03-27
?CROC MAKES A 187 LOOK EASY 197 6 (3.33)  2010-03-27
?New Croc SIte 172 5 (3.40)  2010-03-27
?L 359 19 (3.63)  2010-03-27
?crocodile sIte 284 10 (3.50)  2010-03-30
?Pleasant® 345 8 (3.38)  2010-03-30
?A Lovely Ride 273 13 (3.85)  2010-03-30
?It's glorious today 291 14 (3.64)  2010-04-01
?Na - Zu 435 10 (3.70)  2010-04-01
?WHO'NOWOWOWOW 419 5 (2.60)  2010-04-03
?part of your world 217 5 (3.00)  2010-04-04
?fff 177 4 (3.50)  2010-04-04
?FIve-star webiste 995 16 (1.94)  2010-04-04
?Captain Haddock 1,731 28 (3.86)  2010-04-04
?, 258 9 (3.33)  2010-04-05
?indnian 420 7 (2.71)  2010-04-05
?Ricky Manning tribute sIte will be Underway soon ! 227 3 (3.67)  2010-04-06
?Epic Domain Grab 210 6 (2.17)  2010-04-06
?retirement site 165 6 (2.83)  2010-04-06
?Paul newman doesn't drive a VAN 202 4 (3.00)  2010-04-06
?Vince McMan 359 7 (2.86)  2010-04-06
?LOL 312 5 (3.00)  2010-04-06
?wut 309 4 (2.75)  2010-04-06
?www.coachcarter.ytmnd.com 336 8 (1.88)  2010-04-06
?untitled 314 7 (2.14)  2010-04-09
?ExpirimennalTYTMND 383 8 (3.38)  2010-04-09
?jioejejejoijiojiojioejiejoijeoj 416 14 (3.79)  2010-04-09
?Jake Steele catches a fly ball 365 4 (3.50)  2010-04-10
?Jake Steele forgets the milk 345 3 (3.00)  2010-04-10
?Jake Steele just found his watch 338 4 (3.25)  2010-04-10
?Jake Steele grows up a bit 450 7 (2.86)  2010-04-10
?KRA2008 385 5 (2.60)  2010-04-10
?Fuck the world 793 26 (3.88)  2010-04-16
?a sexual guy 514 10 (2.30)  2010-05-12
?well 329 4 (4.25)  2010-09-03
?gay site you can watch while thinking about stuff 1,594 15 (4.07)  2010-09-13
?site dedicated to great warchief 1,288 12 (3.58)  2010-09-16
?38388 867 8 (3.88)  2010-09-16
?watching the world buzz by 519 4 (3.50)  2010-09-16
?what now 1,465 17 (3.94)  2010-09-16